New York, NY (10107)

10:14 PM EDT on July 26, 2016 (GMT -0400)
Midtown West | | Change Station

Elev 30 ft 40.76 °N, 73.99 °W | Updated 20 seconds ago

Clear
Clear
83.8 °F
Feels Like 84 °F
N
0.4
Wind Variable Wind from SSE
Gusts 2.5 mph

Today
High -- | Low -- °F
--% Chance of Precip.
Yesterday
High -- | Low -- °F
Precip. -- in
Pressure 29.91 in
Visibility 10.0 miles
Clouds Clear
Heat Index 84 °F
Dew Point 61 °F
Humidity 46%
Rainfall 0.00 in
Snow Depth Not available.
5:47 AM 8:17 PM
Waning Gibbous, 48% visible
METAR KNYC 270151Z AUTO VRB04KT 10SM CLR 28/16 A2994 RMK AO2 SLP129 T02830156 $
Pressure 29.91 in
Visibility 10.0 miles
Clouds Clear
Heat Index 84 °F
Dew Point 61 °F
Humidity 46%
Rainfall 0.00 in
Snow Depth Not available.
5:47 AM 8:17 PM
Waning Gibbous, 48% visible
METAR KNYC 270151Z AUTO VRB04KT 10SM CLR 28/16 A2994 RMK AO2 SLP129 T02830156 $

10-Day Weather Forecast

Almanac

Astronomy

Jul. 26, 2016 Rise Set
Actual Time
Civil Twilight
Nautical Twilight
Astronomical Twilight
Moon
Length of Visible Light
Length of Day
Tomorrow will be .
, % of the Moon is Illuminated

Today's Extremes

State Highs State Lows

Community

WunderPhotos

Upload Photos

1,927,776 photos uploaded!

WunderBlog® & News

Nearby

Air Quality

  Air Quality AQ Index Pollutant
Not available.

Snow Depth

Station Depth Elevation

Earthquake Activity

City Distance Mag. Time & Date
Minimum magnitude displayed is 2.5.

Coastal Water Temperatures

Place Temperature

Stations

Nearby Weather Stations

Station Location Temp. Windchill Dew Point Humidity Wind Precip. Elev Updated Type
                   

Watches & Warnings

There are currently no watches in effect.